Time;durP1;ratioP1;P1;durP2;ratioP2;P2;SDS_P1;SDS_P2;PMS_P1;PMS_P2;Temp;Humidity;BMP_temperature;BMP_pressure;BME280_temperature;BME280_humidity;BME280_pressure;Samples;Min_cycle;Max_cycle;Signal;HPM_P1;HPM_P2
2022/10/01 00:00:56;;;;;;;15.32;7.38;;;6.20;99.90;;;;;;5041470;28;20082;-77
2022/10/01 00:03:23;;;;;;;18.80;8.40;;;6.20;99.90;;;;;;5046840;28;20025;-77
2022/10/01 00:06:17;;;;;;;16.30;8.27;;;6.10;99.90;;;;;;5044841;28;20118;-77
2022/10/01 00:08:47;;;;;;;15.23;7.32;;;6.10;99.90;;;;;;5046029;28;20043;-76
2022/10/01 00:11:15;;;;;;;14.10;7.63;;;6.00;99.90;;;;;;5048782;28;20442;-76
2022/10/01 00:13:42;;;;;;;14.27;7.30;;;6.00;99.90;;;;;;5040869;28;20046;-76
2022/10/01 00:16:10;;;;;;;15.20;7.38;;;6.10;99.90;;;;;;5042943;28;20086;-77
2022/10/01 00:18:41;;;;;;;14.98;7.90;;;6.00;99.90;;;;;;5045155;28;20491;-77
2022/10/01 00:21:14;;;;;;;16.67;7.45;;;6.00;99.90;;;;;;5043067;28;20043;-77
2022/10/01 00:23:39;;;;;;;13.20;6.93;;;6.00;99.90;;;;;;5046200;28;20029;-77
2022/10/01 00:26:14;;;;;;;15.07;7.03;;;5.90;99.90;;;;;;5047201;28;20032;-77
2022/10/01 00:28:41;;;;;;;12.82;6.68;;;5.90;99.90;;;;;;5039369;28;20076;-77
2022/10/01 00:31:08;;;;;;;12.05;5.68;;;5.90;99.90;;;;;;5037257;28;20089;-77
2022/10/01 00:33:35;;;;;;;13.15;6.15;;;5.80;99.90;;;;;;5038994;28;20445;-77
2022/10/01 00:36:00;;;;;;;13.80;6.07;;;5.90;99.90;;;;;;5037600;28;20700;-77
2022/10/01 00:38:29;;;;;;;11.10;5.53;;;5.90;99.90;;;;;;5047517;28;20025;-78
2022/10/01 00:40:55;;;;;;;12.88;5.85;;;5.90;99.90;;;;;;5048289;28;20546;-77
2022/10/01 00:43:27;;;;;;;11.90;6.00;;;5.90;99.90;;;;;;5048226;28;20041;-77
2022/10/01 00:45:58;;;;;;;9.98;5.60;;;6.00;99.90;;;;;;5042764;28;20511;-78
2022/10/01 00:48:25;;;;;;;12.40;6.20;;;5.90;99.90;;;;;;5044679;28;20581;-77
2022/10/01 00:50:51;;;;;;;8.98;5.35;;;5.90;99.90;;;;;;5043743;28;20511;-77
2022/10/01 00:53:19;;;;;;;11.15;5.60;;;5.80;99.90;;;;;;5042109;28;20206;-77
2022/10/01 00:55:54;;;;;;;12.88;5.72;;;5.80;99.90;;;;;;5043778;28;20068;-77
2022/10/01 00:58:20;;;;;;;11.90;5.50;;;5.80;99.90;;;;;;5040088;28;20107;-77
2022/10/01 01:00:47;;;;;;;8.93;5.22;;;5.80;99.90;;;;;;5041784;28;20087;-77
2022/10/01 01:03:14;;;;;;;10.25;5.47;;;5.80;99.90;;;;;;5046118;28;20037;-77
2022/10/01 01:05:40;;;;;;;10.77;5.35;;;5.80;99.90;;;;;;5046462;28;20539;-77
2022/10/01 01:08:07;;;;;;;12.25;5.32;;;5.80;99.90;;;;;;5042739;28;20025;-77
2022/10/01 01:11:02;;;;;;;10.15;5.30;;;5.80;99.90;;;;;;5052168;28;20029;-77
2022/10/01 01:13:49;;;;;;;6.32;4.30;;;5.70;99.90;;;;;;5037406;28;20503;-77
2022/10/01 01:16:32;;;;;;;8.63;4.70;;;5.80;99.90;;;;;;5045291;28;20064;-77
2022/10/01 01:19:03;;;;;;;7.95;4.97;;;5.80;99.90;;;;;;5038850;28;20052;-77
2022/10/01 01:21:34;;;;;;;9.05;4.57;;;5.80;99.90;;;;;;5048986;28;20029;-77
2022/10/01 01:24:22;;;;;;;7.37;4.70;;;5.80;99.90;;;;;;5044862;28;20035;-77
2022/10/01 01:27:05;;;;;;;4.97;3.47;;;5.80;99.90;;;;;;5048300;28;20114;-77
2022/10/01 01:29:43;;;;;;;6.97;4.13;;;5.80;99.90;;;;;;5044533;28;20033;-77
2022/10/01 01:32:20;;;;;;;7.15;4.22;;;5.80;99.90;;;;;;5048830;28;20044;-77
2022/10/01 01:34:49;;;;;;;8.18;3.90;;;5.70;99.90;;;;;;5046414;28;20639;-77
2022/10/01 01:37:18;;;;;;;8.38;4.60;;;5.80;99.90;;;;;;5046377;28;20053;-77
2022/10/01 01:39:55;;;;;;;5.97;3.97;;;5.70;99.90;;;;;;5045042;28;20018;-77
2022/10/01 01:42:29;;;;;;;6.97;4.03;;;5.80;99.90;;;;;;5039002;28;20037;-77
2022/10/01 01:44:58;;;;;;;8.48;4.50;;;5.80;99.90;;;;;;5034278;28;20396;-77
2022/10/01 01:47:27;;;;;;;5.28;3.55;;;5.90;99.90;;;;;;5045968;28;20658;-77
2022/10/01 01:49:53;;;;;;;6.35;4.18;;;5.90;99.90;;;;;;5040510;28;20122;-77
2022/10/01 01:52:18;;;;;;;6.72;4.20;;;5.90;99.90;;;;;;5046402;28;20483;-77
2022/10/01 01:54:48;;;;;;;9.77;3.97;;;5.90;99.90;;;;;;5038058;28;20029;-77
2022/10/01 01:57:17;;;;;;;10.30;4.25;;;6.10;99.90;;;;;;5035863;28;20100;-77
2022/10/01 01:59:43;;;;;;;6.22;4.25;;;6.20;99.90;;;;;;5033793;28;20154;-77
2022/10/01 02:02:22;;;;;;;6.47;4.07;;;6.20;99.90;;;;;;5044990;28;20029;-77
2022/10/01 02:04:59;;;;;;;8.52;4.05;;;6.20;99.90;;;;;;5045097;28;20071;-77
2022/10/01 02:07:42;;;;;;;6.22;3.78;;;6.20;99.90;;;;;;5040055;28;20040;-78
2022/10/01 02:10:35;;;;;;;6.47;3.92;;;6.20;99.90;;;;;;5045667;28;20025;-78
2022/10/01 02:13:38;;;;;;;6.95;4.07;;;6.30;99.90;;;;;;5043173;28;20025;-77
2022/10/01 02:16:44;;;;;;;6.15;3.33;;;6.30;99.90;;;;;;5037670;28;20056;-77
2022/10/01 02:19:18;;;;;;;6.70;4.35;;;6.20;99.90;;;;;;5039267;28;20021;-77
2022/10/01 02:22:04;;;;;;;9.18;4.90;;;6.20;99.90;;;;;;5044086;28;20033;-78
2022/10/01 02:24:48;;;;;;;13.70;4.57;;;6.20;99.90;;;;;;5043030;28;20074;-78
2022/10/01 02:27:22;;;;;;;7.60;3.95;;;6.10;99.90;;;;;;5037721;28;20464;-77
2022/10/01 02:29:48;;;;;;;7.30;4.20;;;6.20;99.90;;;;;;5021719;28;20603;-77
2022/10/01 02:32:17;;;;;;;6.65;3.67;;;6.20;99.90;;;;;;5043297;28;20029;-77
2022/10/01 02:34:44;;;;;;;7.13;4.30;;;6.20;99.90;;;;;;5044090;28;20419;-77
2022/10/01 02:37:11;;;;;;;7.47;4.05;;;6.30;99.90;;;;;;5036162;28;20464;-78
2022/10/01 02:39:40;;;;;;;6.88;3.85;;;6.30;99.90;;;;;;5036294;28;20037;-77
2022/10/01 02:42:08;;;;;;;8.23;4.07;;;6.10;99.90;;;;;;5045125;28;20031;-77
2022/10/01 02:44:39;;;;;;;7.10;4.22;;;6.10;99.90;;;;;;5046154;28;20104;-77
2022/10/01 02:47:20;;;;;;;7.53;4.40;;;6.10;99.90;;;;;;5045378;28;20033;-77
2022/10/01 02:49:46;;;;;;;5.90;3.80;;;6.10;99.90;;;;;;5035131;28;20025;-77
2022/10/01 02:52:18;;;;;;;5.68;3.92;;;6.20;99.90;;;;;;5043359;28;20031;-77
2022/10/01 02:55:00;;;;;;;10.13;4.25;;;6.20;99.90;;;;;;5047170;28;20050;-78
2022/10/01 02:57:26;;;;;;;8.40;4.35;;;6.20;99.90;;;;;;5042905;28;20021;-77
2022/10/01 03:00:05;;;;;;;8.85;4.18;;;6.30;99.90;;;;;;5035144;28;20084;-77
2022/10/01 03:02:31;;;;;;;6.82;3.80;;;6.30;99.90;;;;;;5040686;28;20036;-77
2022/10/01 03:04:58;;;;;;;8.07;4.22;;;6.30;99.90;;;;;;5039055;28;20368;-77
2022/10/01 03:07:29;;;;;;;5.10;3.55;;;6.20;99.90;;;;;;5040459;28;20025;-77
2022/10/01 03:09:54;;;;;;;5.78;4.10;;;6.20;99.90;;;;;;5037519;28;20071;-77
2022/10/01 03:12:21;;;;;;;5.85;3.53;;;6.30;99.90;;;;;;5049285;28;20128;-77
2022/10/01 03:14:47;;;;;;;9.13;4.93;;;6.50;99.90;;;;;;5046122;28;20039;-77
2022/10/01 03:17:13;;;;;;;7.63;4.32;;;6.50;99.90;;;;;;5038262;28;20033;-78
2022/10/01 03:19:39;;;;;;;6.57;3.80;;;6.50;99.90;;;;;;5040804;28;20021;-76
2022/10/01 03:22:06;;;;;;;7.82;4.45;;;6.50;99.90;;;;;;5050475;28;20035;-78
2022/10/01 03:24:31;;;;;;;7.75;4.15;;;6.50;99.90;;;;;;5046893;28;20086;-77
2022/10/01 03:26:57;;;;;;;8.70;4.78;;;6.70;99.90;;;;;;5050579;28;20021;-77
2022/10/01 03:29:44;;;;;;;5.78;4.07;;;6.70;99.90;;;;;;5047085;28;20016;-77
2022/10/01 03:32:10;;;;;;;9.73;4.35;;;6.90;99.90;;;;;;5043858;28;20108;-77
2022/10/01 03:34:36;;;;;;;8.75;4.18;;;6.90;99.90;;;;;;5030563;28;20029;-77
2022/10/01 03:37:02;;;;;;;6.85;3.85;;;7.00;99.90;;;;;;5037295;28;20913;-77
2022/10/01 03:39:39;;;;;;;7.43;4.45;;;7.10;99.90;;;;;;5044047;28;20035;-77
2022/10/01 03:42:05;;;;;;;8.15;4.57;;;7.20;99.90;;;;;;5048018;28;20365;-77
2022/10/01 03:44:31;;;;;;;6.82;4.53;;;7.40;99.90;;;;;;5045781;28;20025;-78
2022/10/01 03:46:57;;;;;;;6.63;4.32;;;7.50;99.90;;;;;;5041236;28;20028;-77
2022/10/01 03:49:22;;;;;;;9.05;4.80;;;7.60;99.90;;;;;;5043167;28;20499;-77
2022/10/01 03:51:48;;;;;;;7.60;4.22;;;7.50;99.90;;;;;;5045445;28;20191;-78
2022/10/01 03:54:14;;;;;;;8.38;4.70;;;7.60;99.90;;;;;;5047209;28;20451;-77
2022/10/01 03:56:41;;;;;;;6.93;4.43;;;7.60;99.90;;;;;;5037798;28;20037;-77
2022/10/01 03:59:08;;;;;;;6.07;3.92;;;7.80;99.90;;;;;;5050054;28;20060;-77
2022/10/01 04:01:33;;;;;;;8.23;4.47;;;7.80;99.90;;;;;;5048033;28;20572;-77
2022/10/01 04:03:59;;;;;;;7.97;4.15;;;7.70;99.90;;;;;;5045410;28;20117;-77
2022/10/01 04:06:24;;;;;;;6.30;4.30;;;7.70;99.90;;;;;;5045740;28;20049;-77
2022/10/01 04:08:50;;;;;;;7.05;3.97;;;7.80;99.90;;;;;;5044982;28;20112;-78
2022/10/01 04:11:15;;;;;;;6.07;4.00;;;7.80;99.90;;;;;;5047163;28;20036;-77
2022/10/01 04:13:41;;;;;;;8.50;4.93;;;7.90;99.90;;;;;;5048447;28;20032;-78
2022/10/01 04:16:06;;;;;;;9.55;4.10;;;8.10;99.90;;;;;;5049571;28;20472;-76
2022/10/01 04:18:33;;;;;;;8.70;4.72;;;8.10;99.90;;;;;;5039276;28;20026;-77
2022/10/01 04:20:58;;;;;;;9.73;3.85;;;8.20;99.90;;;;;;5041077;28;20048;-77
2022/10/01 04:23:25;;;;;;;6.80;4.05;;;8.30;99.90;;;;;;5041039;28;20602;-77
2022/10/01 04:25:50;;;;;;;8.43;4.65;;;8.30;99.90;;;;;;5046658;28;20033;-77
2022/10/01 04:28:16;;;;;;;10.10;4.60;;;8.30;99.90;;;;;;5048619;28;20086;-77
2022/10/01 04:30:43;;;;;;;6.28;4.20;;;8.30;99.90;;;;;;5043697;28;20055;-78
2022/10/01 04:33:12;;;;;;;7.82;3.85;;;8.30;99.90;;;;;;5037742;28;20033;-77
2022/10/01 04:35:38;;;;;;;7.05;4.32;;;8.30;99.90;;;;;;5048291;28;20028;-77
2022/10/01 04:38:12;;;;;;;6.68;3.78;;;8.40;99.90;;;;;;5044170;28;20561;-76
2022/10/01 04:40:38;;;;;;;7.78;4.35;;;8.30;99.90;;;;;;5046519;28;20055;-77
2022/10/01 04:43:07;;;;;;;7.22;3.63;;;8.30;99.90;;;;;;5048087;28;20511;-77
2022/10/01 04:45:32;;;;;;;7.03;4.00;;;8.40;99.90;;;;;;5044884;28;20614;-77
2022/10/01 04:47:58;;;;;;;7.13;3.88;;;8.40;99.90;;;;;;5040065;28;20033;-77
2022/10/01 04:50:25;;;;;;;5.60;3.60;;;8.40;99.90;;;;;;5043808;28;20029;-76
2022/10/01 04:52:52;;;;;;;6.65;3.78;;;8.40;99.90;;;;;;5047561;28;20124;-77
2022/10/01 04:55:19;;;;;;;5.53;3.42;;;8.50;99.90;;;;;;5045541;28;20043;-74
2022/10/01 04:57:45;;;;;;;8.23;4.13;;;8.50;99.90;;;;;;5048800;28;20035;-76
2022/10/01 05:00:14;;;;;;;7.95;4.15;;;8.60;99.90;;;;;;5045749;28;20631;-74
2022/10/01 05:02:44;;;;;;;5.30;3.63;;;8.60;99.90;;;;;;5043906;28;20471;-76
2022/10/01 05:05:09;;;;;;;5.55;3.53;;;8.60;99.90;;;;;;5043374;28;20033;-75
2022/10/01 05:07:37;;;;;;;5.13;3.42;;;8.70;99.90;;;;;;5038204;28;20496;-74
2022/10/01 05:10:03;;;;;;;5.75;3.55;;;8.70;99.90;;;;;;5039775;28;20475;-75
2022/10/01 05:12:29;;;;;;;6.40;3.88;;;8.80;99.90;;;;;;5045529;28;20074;-75
2022/10/01 05:14:55;;;;;;;8.65;3.70;;;8.80;99.90;;;;;;5043079;28;22023;-75
2022/10/01 05:17:21;;;;;;;6.65;3.63;;;8.70;99.90;;;;;;5048449;28;20029;-75
2022/10/01 05:19:47;;;;;;;6.93;3.10;;;8.80;99.90;;;;;;5044897;28;20565;-76
2022/10/01 05:22:13;;;;;;;5.88;3.40;;;8.80;99.90;;;;;;5039793;28;20036;-77
2022/10/01 05:24:40;;;;;;;8.98;3.13;;;8.70;99.90;;;;;;5037981;28;20395;-76
2022/10/01 05:27:09;;;;;;;5.25;3.30;;;8.80;99.90;;;;;;5037125;28;20030;-77
2022/10/01 05:29:34;;;;;;;4.53;3.33;;;8.80;99.90;;;;;;5039446;28;20045;-75
2022/10/01 05:32:00;;;;;;;6.32;3.70;;;8.90;99.90;;;;;;5041761;28;20470;-74
2022/10/01 05:34:26;;;;;;;5.82;3.58;;;8.90;99.90;;;;;;5033039;28;20025;-76
2022/10/01 05:36:51;;;;;;;7.00;3.83;;;8.90;99.90;;;;;;5039867;28;20444;-76
2022/10/01 05:39:17;;;;;;;4.25;3.05;;;8.80;99.90;;;;;;5044222;28;20487;-77
2022/10/01 05:41:57;;;;;;;4.88;3.47;;;8.90;99.90;;;;;;5041876;28;20375;-79
2022/10/01 05:44:23;;;;;;;6.93;3.28;;;9.00;99.90;;;;;;5041385;28;20033;-79
2022/10/01 05:46:49;;;;;;;4.15;3.00;;;9.10;99.90;;;;;;5033594;28;20079;-77
2022/10/01 05:49:16;;;;;;;4.97;3.13;;;9.10;99.90;;;;;;5034101;28;20029;-79
2022/10/01 05:51:43;;;;;;;8.15;3.78;;;9.10;99.90;;;;;;5034206;28;20625;-78
2022/10/01 05:54:10;;;;;;;5.90;3.65;;;9.10;99.90;;;;;;5039948;28;20083;-78
2022/10/01 05:56:35;;;;;;;6.88;3.92;;;9.20;99.90;;;;;;5032634;28;20112;-78
2022/10/01 05:59:01;;;;;;;5.15;3.50;;;9.20;99.90;;;;;;5032957;28;20523;-79
2022/10/01 06:01:45;;;;;;;5.13;3.10;;;9.20;99.90;;;;;;5034146;28;20351;-84
2022/10/01 06:04:11;;;;;;;13.80;3.20;;;9.40;99.90;;;;;;5031644;28;20400;-79
2022/10/01 06:06:36;;;;;;;4.85;2.78;;;9.40;99.90;;;;;;5030826;28;20029;-79
2022/10/01 06:09:02;;;;;;;5.55;3.35;;;9.60;99.90;;;;;;5031816;28;20522;-78
2022/10/01 06:11:27;;;;;;;5.13;2.88;;;9.60;99.90;;;;;;5034336;28;20033;-77
2022/10/01 06:13:53;;;;;;;10.07;3.05;;;9.70;99.90;;;;;;5036685;28;20504;-77
2022/10/01 06:16:19;;;;;;;5.78;3.45;;;9.70;99.90;;;;;;5033989;28;20021;-79
2022/10/01 06:18:56;;;;;;;5.90;3.45;;;9.70;99.90;;;;;;5035211;28;20086;-78
2022/10/01 06:21:21;;;;;;;6.05;3.13;;;9.70;99.90;;;;;;5034030;28;20029;-78
2022/10/01 06:23:49;;;;;;;7.70;3.30;;;9.70;99.90;;;;;;5035613;28;20032;-79
2022/10/01 06:26:15;;;;;;;5.45;2.95;;;9.70;99.90;;;;;;5037074;28;20039;-79
2022/10/01 06:28:40;;;;;;;5.50;3.17;;;9.80;99.90;;;;;;5035311;28;20029;-81
2022/10/01 06:31:05;;;;;;;4.35;3.15;;;9.80;99.90;;;;;;5034302;28;20052;-79
2022/10/01 06:33:31;;;;;;;6.05;3.50;;;9.80;99.90;;;;;;5035117;28;20661;-78
2022/10/01 06:35:56;;;;;;;4.65;2.90;;;9.90;99.90;;;;;;5034978;28;20049;-77
2022/10/01 06:38:23;;;;;;;6.47;3.00;;;10.00;99.90;;;;;;5036050;28;20350;-80
2022/10/01 06:40:54;;;;;;;5.05;2.90;;;10.00;99.90;;;;;;5037751;28;20068;-79
2022/10/01 06:43:20;;;;;;;9.25;3.33;;;10.10;99.90;;;;;;5038498;28;20518;-77
2022/10/01 06:45:46;;;;;;;5.70;3.53;;;10.10;99.90;;;;;;5038908;28;20114;-79
2022/10/01 06:48:13;;;;;;;7.82;3.65;;;10.20;99.90;;;;;;5041323;28;20434;-81
2022/10/01 06:50:40;;;;;;;7.25;3.53;;;10.20;99.90;;;;;;5043475;28;20394;-79
2022/10/01 06:53:06;;;;;;;3.60;2.65;;;10.10;99.90;;;;;;5040990;28;20032;-77
2022/10/01 06:55:34;;;;;;;4.88;2.83;;;10.20;99.90;;;;;;5042434;28;20021;-77
2022/10/01 06:58:02;;;;;;;6.72;2.85;;;10.20;99.90;;;;;;5041373;28;20025;-78
2022/10/01 07:00:29;;;;;;;5.50;3.25;;;10.20;99.90;;;;;;5041037;28;20060;-77
2022/10/01 07:02:55;;;;;;;5.28;3.40;;;10.20;99.90;;;;;;5041078;28;20476;-77
2022/10/01 07:05:22;;;;;;;6.60;3.45;;;10.30;99.90;;;;;;5041835;28;20096;-77
2022/10/01 07:07:47;;;;;;;4.43;2.83;;;10.30;99.90;;;;;;5034918;28;20037;-77
2022/10/01 07:10:16;;;;;;;7.68;2.92;;;10.30;99.90;;;;;;5041432;28;20429;-76
2022/10/01 07:12:41;;;;;;;6.35;3.08;;;10.30;99.90;;;;;;5036348;28;20032;-78
2022/10/01 07:15:08;;;;;;;6.22;3.22;;;10.40;99.90;;;;;;5038942;28;20036;-80
2022/10/01 07:17:41;;;;;;;6.38;3.88;;;10.40;99.90;;;;;;5036130;28;20036;-77
2022/10/01 07:20:07;;;;;;;5.78;3.28;;;10.50;99.90;;;;;;5038093;28;20021;-81
2022/10/01 07:22:32;;;;;;;4.50;2.90;;;10.50;99.90;;;;;;5042950;28;20028;-79
2022/10/01 07:24:57;;;;;;;4.93;2.65;;;10.50;99.90;;;;;;5035405;28;20071;-76
2022/10/01 07:27:26;;;;;;;4.95;3.20;;;10.60;99.90;;;;;;5039271;28;20045;-81
2022/10/01 07:29:52;;;;;;;4.63;2.95;;;10.60;99.90;;;;;;5031116;28;20041;-81
2022/10/01 07:32:17;;;;;;;7.72;3.58;;;10.70;99.90;;;;;;5038807;28;20066;-81
2022/10/01 07:34:42;;;;;;;5.18;3.55;;;10.70;99.90;;;;;;5042969;28;20081;-78
2022/10/01 07:37:09;;;;;;;6.05;3.63;;;10.80;99.90;;;;;;5037704;28;20475;-77
2022/10/01 07:39:35;;;;;;;5.22;3.38;;;10.90;99.90;;;;;;5038840;28;20025;-74
2022/10/01 07:42:01;;;;;;;6.55;3.63;;;11.00;99.90;;;;;;5035384;28;20021;-74
2022/10/01 07:44:28;;;;;;;6.60;3.50;;;11.10;99.90;;;;;;5040841;28;20027;-75
2022/10/01 07:46:54;;;;;;;4.57;3.20;;;11.20;99.90;;;;;;5042403;28;20040;-75
2022/10/01 07:49:19;;;;;;;7.85;3.42;;;11.20;99.90;;;;;;5038905;28;20035;-75
2022/10/01 07:51:47;;;;;;;5.18;3.30;;;11.40;99.90;;;;;;5039757;28;20025;-75
2022/10/01 07:54:13;;;;;;;8.20;3.67;;;11.50;99.90;;;;;;5038406;28;20037;-74
2022/10/01 07:56:38;;;;;;;4.78;3.50;;;11.50;99.90;;;;;;5033753;28;20033;-74
2022/10/01 07:59:04;;;;;;;6.55;4.10;;;11.70;99.90;;;;;;5037538;28;20036;-75
2022/10/01 08:01:31;;;;;;;4.72;3.55;;;11.70;99.90;;;;;;5033218;28;20056;-74
2022/10/01 08:03:56;;;;;;;5.53;3.47;;;11.70;99.90;;;;;;5035057;28;20512;-75
2022/10/01 08:06:21;;;;;;;5.60;3.55;;;11.70;99.90;;;;;;5037789;28;20411;-74
2022/10/01 08:08:47;;;;;;;5.82;3.67;;;11.80;99.90;;;;;;5034568;28;20410;-75
2022/10/01 08:11:16;;;;;;;6.80;3.83;;;11.90;99.90;;;;;;5032669;28;20041;-75
2022/10/01 08:13:46;;;;;;;5.72;3.45;;;12.00;99.90;;;;;;5032411;28;20029;-75
2022/10/01 08:16:11;;;;;;;5.88;3.28;;;12.10;99.90;;;;;;5033747;28;20052;-74
2022/10/01 08:18:39;;;;;;;7.53;3.40;;;12.10;99.90;;;;;;5035857;28;20017;-75
2022/10/01 08:21:05;;;;;;;8.05;3.30;;;12.10;99.90;;;;;;5035323;28;20566;-75
2022/10/01 08:23:32;;;;;;;5.20;3.28;;;12.10;99.90;;;;;;5034128;28;20032;-75
2022/10/01 08:26:00;;;;;;;4.80;3.03;;;12.20;99.90;;;;;;5032649;28;20048;-76
2022/10/01 08:28:26;;;;;;;5.93;3.25;;;12.20;99.90;;;;;;5034723;28;20463;-75
2022/10/01 08:30:51;;;;;;;4.88;3.17;;;12.20;99.90;;;;;;5027890;28;20053;-75
2022/10/01 08:33:16;;;;;;;5.38;3.22;;;12.30;99.90;;;;;;5032625;28;20040;-74
2022/10/01 08:35:43;;;;;;;6.60;2.90;;;12.30;99.90;;;;;;5029212;28;20123;-74
2022/10/01 08:38:09;;;;;;;3.63;2.83;;;12.20;99.90;;;;;;5037526;28;20107;-75
2022/10/01 08:40:42;;;;;;;5.97;3.47;;;12.20;99.90;;;;;;5037708;28;20024;-76
2022/10/01 08:43:28;;;;;;;4.93;2.92;;;12.10;99.90;;;;;;5042616;28;20376;-77
2022/10/01 08:45:59;;;;;;;5.28;3.15;;;12.20;99.90;;;;;;5029047;28;20032;-77
2022/10/01 08:48:45;;;;;;;6.07;3.28;;;12.20;99.90;;;;;;5033544;28;20025;-74
2022/10/01 08:51:33;;;;;;;4.85;3.58;;;12.20;99.90;;;;;;5043133;28;20028;-74
2022/10/01 08:54:27;;;;;;;7.45;3.40;;;12.40;99.90;;;;;;5046936;28;20059;-75
2022/10/01 08:56:56;;;;;;;4.22;2.97;;;12.60;99.90;;;;;;5036262;28;20123;-75
2022/10/01 08:59:38;;;;;;;7.45;3.80;;;12.70;99.90;;;;;;5041996;28;20479;-74
2022/10/01 09:02:19;;;;;;;4.32;2.72;;;12.80;99.90;;;;;;5043343;28;20447;-73
2022/10/01 09:04:46;;;;;;;4.13;2.80;;;12.90;99.90;;;;;;5041955;28;20028;-73
2022/10/01 09:07:30;;;;;;;3.83;2.90;;;12.90;99.90;;;;;;5045765;28;20167;-73
2022/10/01 09:10:24;;;;;;;5.35;3.50;;;12.80;99.90;;;;;;5037805;28;20031;-73
2022/10/01 09:13:05;;;;;;;5.93;3.28;;;12.90;99.90;;;;;;5039753;28;20029;-73
2022/10/01 09:15:55;;;;;;;3.90;2.70;;;13.20;99.90;;;;;;5040332;28;20384;-76
2022/10/01 09:18:47;;;;;;;5.15;2.83;;;13.40;99.90;;;;;;5037156;28;20361;-74
2022/10/01 09:21:55;;;;;;;4.72;2.70;;;13.80;99.90;;;;;;5040954;28;20025;-74
2022/10/01 09:24:26;;;;;;;4.03;2.80;;;13.80;99.90;;;;;;5047582;28;20029;-75
2022/10/01 09:26:52;;;;;;;;;;;13.60;99.90;;;;;;5038622;28;20472;-75
2022/10/01 09:29:31;;;;;;;3.42;2.25;;;13.70;99.90;;;;;;5030754;28;19983;-76
2022/10/01 09:32:02;;;;;;;3.10;2.55;;;13.70;99.90;;;;;;5030645;28;20516;-76
2022/10/01 09:34:32;;;;;;;;;;;13.60;99.90;;;;;;5036164;28;20483;-75
2022/10/01 09:37:19;;;;;;;3.33;2.30;;;13.60;99.90;;;;;;5032334;28;19913;-75
2022/10/01 09:39:56;;;;;;;2.92;2.25;;;13.50;99.90;;;;;;5031516;28;20111;-71
2022/10/01 09:42:25;;;;;;;4.05;2.42;;;13.50;99.90;;;;;;5026615;28;20625;-74
2022/10/01 09:44:52;;;;;;;2.80;2.22;;;13.60;99.90;;;;;;5029148;28;20141;-75
2022/10/01 09:47:21;;;;;;;3.38;2.30;;;13.70;99.90;;;;;;5028357;28;20499;-75
2022/10/01 09:49:57;;;;;;;4.60;1.80;;;13.80;99.90;;;;;;5031273;28;20919;-77
2022/10/01 09:52:27;;;;;;;3.08;2.28;;;13.50;99.90;;;;;;5024688;28;20047;-78
2022/10/01 09:55:10;;;;;;;4.78;1.83;;;13.30;99.90;;;;;;5022076;28;20036;-73
2022/10/01 09:58:11;;;;;;;3.22;1.92;;;13.20;99.90;;;;;;5031876;28;20126;-76
2022/10/01 10:00:41;;;;;;;2.28;1.80;;;13.20;99.90;;;;;;5023542;28;20534;-76
2022/10/01 10:03:06;;;;;;;4.30;2.05;;;13.20;99.90;;;;;;5029971;28;20377;-77
2022/10/01 10:05:48;;;;;;;2.22;1.50;;;13.00;99.90;;;;;;5035924;28;20113;-77
2022/10/01 10:08:34;;;;;;;3.20;1.92;;;13.00;99.90;;;;;;5041138;28;20035;-76
2022/10/01 10:11:07;;;;;;;2.50;1.48;;;12.70;99.90;;;;;;5033892;28;20063;-77
2022/10/01 10:13:37;;;;;;;2.53;1.70;;;12.50;99.90;;;;;;5027586;28;20427;-79
2022/10/01 10:16:32;;;;;;;2.22;1.88;;;12.40;99.90;;;;;;5031709;28;20030;-77
2022/10/01 10:19:21;;;;;;;3.30;1.88;;;12.40;99.90;;;;;;5031682;28;20049;-77
2022/10/01 10:22:53;;;;;;;2.42;1.60;;;12.50;99.90;;;;;;5034210;28;20044;-77
2022/10/01 10:24:57;;;;;;;2.20;1.60;;;12.50;99.90;;;;;;5018532;28;20036;-78
2022/10/01 10:27:26;;;;;;;2.42;2.00;;;12.20;99.90;;;;;;5030554;28;20044;-78
2022/10/01 10:30:15;;;;;;;3.22;2.15;;;11.80;99.90;;;;;;5037496;28;20072;-78
2022/10/01 10:32:46;;;;;;;1.70;1.42;;;11.60;99.90;;;;;;5032685;28;20033;-79
2022/10/01 10:35:18;;;;;;;3.10;2.08;;;11.50;99.90;;;;;;5039202;28;20040;-76
2022/10/01 10:37:48;;;;;;;3.25;2.38;;;11.40;99.90;;;;;;5032110;28;20044;-77
2022/10/01 10:40:19;;;;;;;3.33;1.90;;;11.50;99.90;;;;;;5039433;28;20021;-76
2022/10/01 10:42:56;;;;;;;2.55;2.25;;;11.50;99.90;;;;;;5034274;28;20108;-78
2022/10/01 10:45:32;;;;;;;3.00;2.30;;;11.50;99.90;;;;;;5033563;28;20053;-78
2022/10/01 10:48:02;;;;;;;3.90;2.58;;;11.50;99.90;;;;;;5038702;28;20036;-76
2022/10/01 10:50:38;;;;;;;4.28;2.33;;;11.50;99.90;;;;;;5034211;28;20036;-77
2022/10/01 10:53:21;;;;;;;8.68;5.30;;;11.40;99.90;;;;;;5037975;28;20511;-77
2022/10/01 10:56:01;;;;;;;5.20;2.33;;;11.30;99.90;;;;;;5028305;28;20044;-76
2022/10/01 10:58:38;;;;;;;2.75;2.10;;;11.20;99.90;;;;;;5030776;28;20025;-76
2022/10/01 11:01:09;;;;;;;5.45;3.20;;;11.20;99.90;;;;;;5028373;28;20040;-77
2022/10/01 11:03:40;;;;;;;4.22;2.70;;;11.10;99.90;;;;;;5035464;28;20079;-77
2022/10/01 11:06:13;;;;;;;5.80;3.38;;;11.10;99.90;;;;;;5030023;28;20850;-79
2022/10/01 11:08:40;;;;;;;5.35;3.00;;;11.00;99.90;;;;;;5027772;28;20068;-78
2022/10/01 11:11:33;;;;;;;5.80;2.95;;;11.10;99.90;;;;;;5030467;28;20032;-77
2022/10/01 11:14:10;;;;;;;4.25;2.70;;;11.10;99.90;;;;;;5030153;28;20029;-74
2022/10/01 11:16:59;;;;;;;5.60;2.92;;;11.30;99.90;;;;;;5034202;28;20029;-77
2022/10/01 11:19:42;;;;;;;5.85;3.05;;;11.50;99.90;;;;;;5031924;28;20429;-77
2022/10/01 11:22:41;;;;;;;4.10;3.33;;;11.40;99.90;;;;;;5031289;28;20107;-78
2022/10/01 11:25:17;;;;;;;4.97;3.13;;;11.30;99.90;;;;;;5031896;28;20030;-75
2022/10/01 11:27:55;;;;;;;5.65;3.15;;;11.20;99.90;;;;;;5025610;28;20029;-74
2022/10/01 11:30:25;;;;;;;4.28;2.85;;;11.20;99.90;;;;;;5036062;28;20037;-76
2022/10/01 11:33:07;;;;;;;6.40;3.17;;;11.40;99.90;;;;;;5030120;28;20035;-77
2022/10/01 11:36:13;;;;;;;4.55;3.10;;;11.40;99.90;;;;;;5030478;28;20162;-76
2022/10/01 11:38:48;;;;;;;7.47;3.20;;;11.50;99.90;;;;;;4912645;29;20040;-74
2022/10/01 11:41:29;;;;;;;4.82;2.85;;;11.60;99.90;;;;;;5013544;28;20060;-76
2022/10/01 11:44:05;;;;;;;3.28;2.22;;;11.50;99.90;;;;;;5031182;28;20021;-75
2022/10/01 11:46:38;;;;;;;5.60;2.70;;;11.50;99.90;;;;;;5035198;28;20029;-74
2022/10/01 11:49:23;;;;;;;3.80;2.80;;;11.50;99.90;;;;;;5020700;28;20025;-75
2022/10/01 11:51:58;;;;;;;5.40;2.72;;;11.40;99.90;;;;;;5030478;28;20033;-73
2022/10/01 11:54:28;;;;;;;4.63;2.78;;;11.40;99.90;;;;;;5036790;28;20036;-74
2022/10/01 12:00:03;;;;;;;3.00;2.25;;;11.40;99.90;;;;;;5037334;28;20043;-75
2022/10/01 12:02:41;;;;;;;5.15;2.70;;;11.40;99.90;;;;;;5032991;28;20667;-76
2022/10/01 12:05:15;;;;;;;3.03;2.10;;;11.40;99.90;;;;;;5029294;28;20075;-73
2022/10/01 12:08:33;;;;;;;4.05;2.70;;;11.40;99.90;;;;;;5034298;28;20152;-75
2022/10/01 12:11:34;;;;;;;3.38;2.33;;;11.50;99.90;;;;;;5034605;28;20041;-75
2022/10/01 12:14:10;;;;;;;3.00;2.23;;;11.60;99.90;;;;;;5025377;28;20697;-75
2022/10/01 12:16:45;;;;;;;4.38;2.67;;;11.60;99.90;;;;;;5029698;28;20287;-74
2022/10/01 12:19:13;;;;;;;3.45;2.38;;;11.60;99.90;;;;;;5037789;28;20032;-74
2022/10/01 12:21:48;;;;;;;3.00;2.25;;;11.70;99.90;;;;;;5035156;28;20439;-76
2022/10/01 12:24:26;;;;;;;3.83;2.40;;;11.80;99.90;;;;;;5027681;28;20147;-79
2022/10/01 12:27:18;;;;;;;2.88;2.08;;;11.80;99.90;;;;;;5031125;28;20036;-75
2022/10/01 12:30:11;;;;;;;2.90;2.17;;;11.70;99.90;;;;;;5035012;28;20052;-73
2022/10/01 12:33:08;;;;;;;2.75;2.00;;;11.70;99.90;;;;;;5033924;28;20032;-73
2022/10/01 12:35:56;;;;;;;2.95;1.88;;;11.70;99.90;;;;;;5030591;28;20040;-75
2022/10/01 12:38:43;;;;;;;4.60;1.80;;;11.60;99.90;;;;;;5031569;28;20041;-75
2022/10/01 12:41:15;;;;;;;2.35;1.90;;;11.60;99.90;;;;;;5033613;28;20021;-76
2022/10/01 12:43:59;;;;;;;1.95;1.58;;;11.60;99.90;;;;;;5029056;28;20639;-75
2022/10/01 12:47:17;;;;;;;2.97;2.05;;;11.40;99.90;;;;;;5034618;28;20029;-74
2022/10/01 12:49:50;;;;;;;2.47;1.73;;;11.30;99.90;;;;;;5028853;28;20060;-75
2022/10/01 12:53:09;;;;;;;2.90;1.70;;;11.20;99.90;;;;;;5036156;28;20043;-73
2022/10/01 12:55:55;;;;;;;3.42;1.92;;;11.00;99.90;;;;;;5026877;28;20622;-73
2022/10/01 12:58:43;;;;;;;2.58;1.85;;;10.90;99.90;;;;;;5031255;28;20071;-73
2022/10/01 13:01:27;;;;;;;2.13;1.52;;;11.00;99.90;;;;;;5034469;28;20403;-74
2022/10/01 13:04:25;;;;;;;4.75;2.08;;;11.10;99.90;;;;;;5031632;28;20846;-73
2022/10/01 13:07:03;;;;;;;2.53;1.95;;;11.10;99.90;;;;;;5029570;28;20400;-73
2022/10/01 13:09:37;;;;;;;3.40;2.22;;;11.10;99.90;;;;;;5032797;28;20172;-75
2022/10/01 13:12:12;;;;;;;3.67;2.20;;;11.20;99.90;;;;;;5031184;28;20041;-74
2022/10/01 13:14:43;;;;;;;2.60;2.13;;;11.20;99.90;;;;;;5039947;28;20167;-74
2022/10/01 13:17:25;;;;;;;2.70;1.90;;;11.20;99.90;;;;;;5037244;28;20025;-74
2022/10/01 13:20:26;;;;;;;5.32;1.88;;;11.20;99.90;;;;;;5035706;28;20028;-75
2022/10/01 13:23:00;;;;;;;2.53;2.00;;;11.30;99.90;;;;;;5028912;28;20037;-74